createdAt,value
2023-01-20T00:01:16.006Z,24.40
2023-01-20T00:03:45.760Z,25.10
2023-01-20T00:06:14.316Z,24.87
2023-01-20T00:08:44.147Z,25.00
2023-01-20T00:11:13.659Z,24.87
2023-01-20T00:13:42.102Z,24.30
2023-01-20T00:16:11.561Z,26.63
2023-01-20T00:18:40.192Z,24.83
2023-01-20T00:21:09.695Z,25.20
2023-01-20T00:23:38.242Z,26.67
2023-01-20T00:26:08.751Z,24.93
2023-01-20T00:28:37.394Z,24.90
2023-01-20T00:31:12.530Z,23.70
2023-01-20T00:33:41.211Z,24.47
2023-01-20T00:36:09.967Z,25.37
2023-01-20T00:38:38.410Z,24.50
2023-01-20T00:41:08.636Z,24.40
2023-01-20T00:43:37.168Z,24.23
2023-01-20T00:46:06.026Z,25.17
2023-01-20T00:48:34.878Z,23.57
2023-01-20T00:51:03.406Z,23.33
2023-01-20T00:53:31.814Z,23.03
2023-01-20T00:56:00.248Z,23.00
2023-01-20T00:58:30.417Z,23.17
2023-01-20T01:00:59.537Z,23.43
2023-01-20T01:03:28.740Z,23.97
2023-01-20T01:06:06.725Z,23.37
2023-01-20T01:08:35.203Z,23.77
2023-01-20T01:11:04.142Z,25.57
2023-01-20T01:13:34.393Z,23.53
2023-01-20T01:16:02.841Z,23.83
2023-01-20T01:18:31.300Z,25.60
2023-01-20T01:21:00.854Z,23.50
2023-01-20T01:23:29.403Z,23.97
2023-01-20T01:25:58.552Z,24.97
2023-01-20T01:28:26.971Z,25.23
2023-01-20T01:30:56.816Z,23.77
2023-01-20T01:33:25.253Z,23.87
2023-01-20T01:35:56.901Z,25.60
2023-01-20T01:38:25.652Z,27.07
2023-01-20T01:40:54.383Z,26.67
2023-01-20T01:43:24.109Z,25.23
2023-01-20T01:45:52.712Z,27.40
2023-01-20T01:48:24.447Z,27.80
2023-01-20T01:50:55.091Z,28.10
2023-01-20T01:53:24.346Z,28.20
2023-01-20T01:55:54.649Z,27.83
2023-01-20T01:58:26.675Z,25.70
2023-01-20T02:00:55.129Z,27.17
2023-01-20T02:03:25.316Z,28.93
2023-01-20T02:05:54.669Z,30.17
2023-01-20T02:08:23.116Z,33.03
2023-01-20T02:10:51.578Z,30.93
2023-01-20T02:13:20.077Z,31.07
2023-01-20T02:15:54.375Z,29.40
2023-01-20T02:18:32.811Z,29.47
2023-01-20T02:21:19.113Z,29.83
2023-01-20T02:23:56.803Z,29.77
2023-01-20T02:26:34.054Z,29.00
2023-01-20T02:29:20.336Z,29.20
2023-01-20T02:32:03.086Z,28.80
2023-01-20T02:34:33.010Z,29.83
2023-01-20T02:37:05.090Z,29.27
2023-01-20T02:39:37.985Z,29.77
2023-01-20T02:42:10.203Z,29.30
2023-01-20T02:44:42.245Z,29.20
2023-01-20T02:47:14.488Z,25.50
2023-01-20T02:49:45.352Z,27.07
2023-01-20T02:52:15.332Z,24.97
2023-01-20T02:54:46.707Z,25.93
2023-01-20T02:57:17.785Z,24.37
2023-01-20T02:59:49.768Z,26.10
2023-01-20T03:02:21.210Z,24.23
2023-01-20T03:04:53.221Z,25.30
2023-01-20T03:07:24.233Z,25.13
2023-01-20T03:09:55.386Z,24.73
2023-01-20T03:12:26.313Z,24.50
2023-01-20T03:14:55.242Z,25.03
2023-01-20T03:17:25.219Z,25.03
2023-01-20T03:19:53.863Z,24.30
2023-01-20T03:22:22.286Z,23.27
2023-01-20T03:24:51.018Z,25.83
2023-01-20T03:27:19.500Z,26.23
2023-01-20T03:29:47.912Z,26.77
2023-01-20T03:32:16.904Z,26.20
2023-01-20T03:34:46.756Z,24.83
2023-01-20T03:37:16.077Z,24.60
2023-01-20T03:39:44.520Z,24.57
2023-01-20T03:42:15.243Z,25.83
2023-01-20T03:44:49.221Z,24.87
2023-01-20T03:47:28.669Z,24.03
2023-01-20T03:50:05.027Z,25.77
2023-01-20T03:52:47.278Z,24.93
2023-01-20T03:55:18.290Z,22.37
2023-01-20T03:57:48.434Z,20.00
2023-01-20T04:00:17.821Z,19.67
2023-01-20T04:02:46.300Z,23.33
2023-01-20T04:05:16.682Z,22.07
2023-01-20T04:07:47.567Z,21.60
2023-01-20T04:10:17.986Z,20.43
2023-01-20T04:12:46.486Z,18.80
2023-01-20T04:15:15.248Z,19.73
2023-01-20T04:17:43.904Z,19.47
2023-01-20T04:20:15.416Z,19.60
2023-01-20T04:22:50.061Z,19.60
2023-01-20T04:25:22.207Z,19.80
2023-01-20T04:27:50.623Z,19.70
2023-01-20T04:30:19.532Z,18.87
2023-01-20T04:32:48.084Z,21.40
2023-01-20T04:35:17.558Z,20.60
2023-01-20T04:37:47.340Z,19.60
2023-01-20T04:40:15.754Z,18.47
2023-01-20T04:42:44.157Z,20.00
2023-01-20T04:45:16.311Z,20.50
2023-01-20T04:47:44.993Z,18.47
2023-01-20T04:50:15.255Z,19.57
2023-01-20T04:52:43.793Z,18.50
2023-01-20T04:55:14.008Z,19.10
2023-01-20T04:57:42.669Z,19.50
2023-01-20T05:00:18.544Z,18.67
2023-01-20T05:02:47.040Z,19.80
2023-01-20T05:05:15.886Z,19.50
2023-01-20T05:07:44.568Z,18.70
2023-01-20T05:10:14.701Z,17.03
2023-01-20T05:12:43.392Z,15.93
2023-01-20T05:15:12.360Z,16.33
2023-01-20T05:17:40.882Z,14.97
2023-01-20T05:20:09.987Z,15.43
2023-01-20T05:22:38.453Z,16.40
2023-01-20T05:25:07.427Z,16.80
2023-01-20T05:27:39.242Z,15.67
2023-01-20T05:30:08.838Z,16.30
2023-01-20T05:32:37.219Z,16.70
2023-01-20T05:35:05.882Z,17.17
2023-01-20T05:37:34.300Z,17.97
2023-01-20T05:40:02.796Z,18.27
2023-01-20T05:42:31.260Z,18.63
2023-01-20T05:45:01.388Z,19.20
2023-01-20T05:47:30.126Z,20.83
2023-01-20T05:49:58.679Z,20.97
2023-01-20T05:52:27.108Z,19.40
2023-01-20T05:54:55.540Z,18.43
2023-01-20T05:57:25.785Z,20.80
2023-01-20T05:59:55.740Z,18.40
2023-01-20T06:02:25.933Z,19.63
2023-01-20T06:04:56.118Z,20.97
2023-01-20T06:07:24.734Z,19.87
2023-01-20T06:09:55.338Z,19.73
2023-01-20T06:12:23.879Z,19.83
2023-01-20T06:14:52.476Z,19.17
2023-01-20T06:17:20.918Z,18.97
2023-01-20T06:19:50.715Z,19.23
2023-01-20T06:22:21.076Z,18.70
2023-01-20T06:24:49.562Z,19.17
2023-01-20T06:27:18.081Z,17.10
2023-01-20T06:29:47.777Z,17.50
2023-01-20T06:32:16.177Z,17.80
2023-01-20T06:34:44.636Z,16.77
2023-01-20T06:37:14.495Z,18.40
2023-01-20T06:39:43.237Z,18.33
2023-01-20T06:42:11.788Z,18.00
2023-01-20T06:44:40.222Z,16.90
2023-01-20T06:47:08.645Z,17.23
2023-01-20T06:49:37.065Z,17.73
2023-01-20T06:52:05.617Z,18.13
2023-01-20T06:54:35.495Z,17.07
2023-01-20T06:57:03.937Z,18.07
2023-01-20T06:59:32.351Z,16.00
2023-01-20T07:02:00.917Z,17.23
2023-01-20T07:04:29.396Z,17.63
2023-01-20T07:06:57.959Z,16.97
2023-01-20T07:09:26.611Z,17.27
2023-01-20T07:11:56.517Z,17.13
2023-01-20T07:14:24.990Z,18.10
2023-01-20T07:16:53.724Z,16.93
2023-01-20T07:19:22.153Z,18.17
2023-01-20T07:21:50.654Z,16.97
2023-01-20T07:24:19.057Z,18.00
2023-01-20T07:26:47.512Z,16.80
2023-01-20T07:29:18.033Z,18.53
2023-01-20T07:31:46.990Z,18.97
2023-01-20T07:34:15.438Z,16.73
2023-01-20T07:36:43.851Z,20.03
2023-01-20T07:39:13.135Z,19.40
2023-01-20T07:41:43.746Z,19.40
2023-01-20T07:44:12.282Z,19.13
2023-01-20T07:46:42.273Z,20.30
2023-01-20T07:49:12.226Z,19.93
2023-01-20T07:51:40.975Z,17.30
2023-01-20T07:54:11.106Z,19.53
2023-01-20T07:56:39.534Z,17.90
2023-01-20T07:59:07.969Z,18.57
2023-01-20T08:01:36.699Z,21.57
2023-01-20T08:04:06.574Z,19.30
2023-01-20T08:06:35.066Z,19.90
2023-01-20T08:09:04.436Z,19.80
2023-01-20T08:11:33.243Z,19.30
2023-01-20T08:14:01.717Z,19.87
2023-01-20T08:16:30.189Z,20.37
2023-01-20T08:18:58.636Z,18.40
2023-01-20T08:21:29.146Z,19.60
2023-01-20T08:23:58.019Z,19.77
2023-01-20T08:26:27.910Z,19.53
2023-01-20T08:28:57.194Z,19.67
2023-01-20T08:31:26.114Z,20.97
2023-01-20T08:33:55.342Z,19.77
2023-01-20T08:36:24.658Z,19.40
2023-01-20T08:38:54.563Z,19.00
2023-01-20T08:41:24.248Z,18.23
2023-01-20T08:43:53.094Z,18.80
2023-01-20T08:46:22.724Z,18.07
2023-01-20T08:48:52.163Z,18.17
2023-01-20T08:51:22.103Z,17.47
2023-01-20T08:53:50.879Z,18.10
2023-01-20T08:56:21.704Z,16.83
2023-01-20T08:58:50.207Z,16.93
2023-01-20T09:01:21.337Z,16.87
2023-01-20T09:04:04.457Z,16.60
2023-01-20T09:06:38.610Z,16.57
2023-01-20T09:09:09.972Z,16.43
2023-01-20T09:11:40.948Z,17.57
2023-01-20T09:14:09.465Z,17.17
2023-01-20T09:16:38.067Z,18.00
2023-01-20T09:19:06.507Z,16.90
2023-01-20T09:21:35.067Z,16.80
2023-01-20T09:24:03.524Z,17.23
2023-01-20T09:26:38.755Z,17.63
2023-01-20T09:29:15.900Z,17.23
2023-01-20T09:31:45.346Z,16.47
2023-01-20T09:34:18.957Z,17.03
2023-01-20T09:36:47.554Z,17.40
2023-01-20T09:39:34.056Z,16.80
2023-01-20T09:42:23.270Z,16.63
2023-01-20T09:45:09.790Z,17.47
2023-01-20T09:47:39.817Z,17.83
2023-01-20T09:50:34.536Z,16.87
2023-01-20T09:53:07.985Z,18.33
2023-01-20T09:55:42.692Z,16.63
2023-01-20T09:58:14.977Z,17.83
2023-01-20T10:00:47.237Z,17.40
2023-01-20T10:03:18.238Z,18.60
2023-01-20T10:05:46.863Z,17.60
2023-01-20T10:08:18.016Z,18.47
2023-01-20T10:10:49.497Z,17.97
2023-01-20T10:13:21.209Z,17.27
2023-01-20T10:15:52.517Z,18.97
2023-01-20T10:18:23.712Z,18.20
2023-01-20T10:20:55.026Z,19.00
2023-01-20T10:23:26.642Z,17.50
2023-01-20T10:25:56.916Z,16.13
2023-01-20T10:28:28.487Z,16.23
2023-01-20T10:30:59.505Z,16.23
2023-01-20T10:33:29.943Z,15.33
2023-01-20T10:35:59.039Z,16.03
2023-01-20T10:38:31.910Z,16.17
2023-01-20T10:41:04.499Z,15.30
2023-01-20T10:43:33.216Z,15.03
2023-01-20T10:46:07.894Z,14.30
2023-01-20T10:48:49.899Z,15.20
2023-01-20T10:51:23.204Z,13.87
2023-01-20T10:53:55.862Z,13.70
2023-01-20T10:56:44.989Z,15.03
2023-01-20T10:59:17.476Z,14.87
2023-01-20T11:01:51.879Z,14.47
2023-01-20T11:04:24.786Z,14.90
2023-01-20T11:06:56.539Z,15.67
2023-01-20T11:09:29.075Z,14.57
2023-01-20T11:11:58.160Z,14.10
2023-01-20T11:14:26.678Z,15.40
2023-01-20T11:17:04.481Z,14.33
2023-01-20T11:19:46.943Z,14.83
2023-01-20T11:22:20.610Z,14.77
2023-01-20T11:24:49.626Z,14.43
2023-01-20T11:27:20.218Z,14.57
2023-01-20T11:29:50.910Z,14.27
2023-01-20T11:32:37.176Z,13.75
2023-01-20T11:35:21.581Z,12.70
2023-01-20T11:37:50.061Z,12.27
2023-01-20T11:40:20.721Z,12.50
2023-01-20T11:42:49.881Z,12.93
2023-01-20T11:45:32.604Z,12.37
2023-01-20T11:48:05.951Z,11.77
2023-01-20T11:50:36.850Z,13.48
2023-01-20T11:53:17.817Z,12.70
2023-01-20T11:55:48.176Z,12.67
2023-01-20T11:58:18.558Z,11.45
2023-01-20T12:00:47.086Z,12.10
2023-01-20T12:03:28.627Z,12.43
2023-01-20T12:06:01.555Z,13.40
2023-01-20T12:08:32.777Z,18.10
2023-01-20T12:11:05.185Z,20.13
2023-01-20T12:13:57.790Z,17.83
2023-01-20T12:16:27.638Z,14.93
2023-01-20T12:19:02.138Z,12.70
2023-01-20T12:21:36.696Z,12.40
2023-01-20T12:24:11.224Z,10.43
2023-01-20T12:26:39.673Z,10.60
2023-01-20T12:29:14.180Z,9.65
2023-01-20T12:31:43.570Z,9.88
2023-01-20T12:34:14.558Z,9.77
2023-01-20T12:36:50.724Z,10.50
2023-01-20T12:39:24.473Z,10.40
2023-01-20T12:42:02.910Z,12.95
2023-01-20T12:44:37.706Z,16.37
2023-01-20T12:47:10.712Z,19.33
2023-01-20T12:49:46.207Z,12.43
2023-01-20T12:52:22.664Z,11.13
2023-01-20T12:55:09.837Z,10.45
2023-01-20T12:57:45.413Z,9.80
2023-01-20T13:00:24.410Z,9.95
2023-01-20T13:03:01.636Z,9.57
2023-01-20T13:05:50.355Z,9.97
2023-01-20T13:08:24.539Z,9.38
2023-01-20T13:10:56.485Z,9.17
2023-01-20T13:13:33.454Z,9.30
2023-01-20T13:16:04.772Z,9.10
2023-01-20T13:18:37.248Z,9.07
2023-01-20T13:21:06.082Z,8.70
2023-01-20T13:23:37.829Z,9.13
2023-01-20T13:26:07.415Z,8.90
2023-01-20T13:28:36.235Z,9.07
2023-01-20T13:31:24.955Z,8.63
2023-01-20T13:33:53.680Z,8.77
2023-01-20T13:36:23.738Z,8.57
2023-01-20T13:39:13.606Z,8.15
2023-01-20T13:41:52.142Z,7.90
2023-01-20T13:44:36.554Z,8.48
2023-01-20T13:47:05.845Z,8.45
2023-01-20T13:49:49.809Z,8.93
2023-01-20T13:52:39.042Z,8.47
2023-01-20T13:55:29.102Z,9.10
2023-01-20T13:57:57.780Z,10.27
2023-01-20T14:00:26.465Z,8.48
2023-01-20T14:02:55.170Z,8.48
2023-01-20T14:05:28.408Z,8.80
2023-01-20T14:07:57.819Z,9.97
2023-01-20T14:10:28.212Z,8.77
2023-01-20T14:12:56.821Z,9.52
2023-01-20T14:15:26.751Z,9.02
2023-01-20T14:17:55.925Z,8.02
2023-01-20T14:20:25.905Z,8.37
2023-01-20T14:22:54.590Z,9.50
2023-01-20T14:25:24.986Z,9.23
2023-01-20T14:27:55.046Z,8.03
2023-01-20T14:30:24.443Z,8.45
2023-01-20T14:32:53.531Z,9.10
2023-01-20T14:35:27.581Z,8.87
2023-01-20T14:37:57.334Z,8.73
2023-01-20T14:40:26.642Z,9.40
2023-01-20T14:42:59.961Z,9.37
2023-01-20T14:45:29.578Z,9.00
2023-01-20T14:47:58.961Z,8.23
2023-01-20T14:50:27.818Z,8.27
2023-01-20T14:52:56.516Z,8.80
2023-01-20T14:55:35.580Z,8.60
2023-01-20T14:58:09.428Z,8.40
2023-01-20T15:00:44.002Z,8.55
2023-01-20T15:03:17.129Z,8.10
2023-01-20T15:05:55.430Z,8.57
2023-01-20T15:08:26.743Z,8.90
2023-01-20T15:11:14.192Z,9.53
2023-01-20T15:13:44.533Z,9.27
2023-01-20T15:16:18.702Z,7.73
2023-01-20T15:19:07.291Z,8.13
2023-01-20T15:21:37.542Z,8.37
2023-01-20T15:24:09.078Z,7.80
2023-01-20T15:26:38.767Z,8.30
2023-01-20T15:29:21.261Z,8.53
2023-01-20T15:31:49.944Z,8.40
2023-01-20T15:34:18.441Z,7.73
2023-01-20T15:36:47.627Z,7.10
2023-01-20T15:39:16.583Z,8.38
2023-01-20T15:41:45.160Z,7.63
2023-01-20T15:44:13.569Z,7.40
2023-01-20T15:46:43.627Z,7.70
2023-01-20T15:49:12.288Z,7.25
2023-01-20T15:51:41.025Z,7.17
2023-01-20T15:54:09.584Z,7.30
2023-01-20T15:56:39.202Z,7.37
2023-01-20T15:59:12.312Z,12.03
2023-01-20T16:01:41.131Z,8.93
2023-01-20T16:04:11.533Z,7.00
2023-01-20T16:06:40.417Z,6.87
2023-01-20T16:09:15.887Z,7.20
2023-01-20T16:11:44.381Z,7.93
2023-01-20T16:14:12.798Z,7.37
2023-01-20T16:16:41.257Z,6.97
2023-01-20T16:19:11.834Z,8.17
2023-01-20T16:21:40.286Z,6.73
2023-01-20T16:24:09.053Z,8.47
2023-01-20T16:26:37.564Z,8.17
2023-01-20T16:29:05.996Z,8.83
2023-01-20T16:31:34.483Z,9.33
2023-01-20T16:34:04.361Z,9.20
2023-01-20T16:36:34.200Z,10.50
2023-01-20T16:39:02.683Z,10.10
2023-01-20T16:41:31.657Z,8.77
2023-01-20T16:44:00.121Z,9.30
2023-01-20T16:46:29.644Z,8.73
2023-01-20T16:48:59.466Z,9.00
2023-01-20T16:51:28.275Z,7.93
2023-01-20T16:53:58.883Z,8.97
2023-01-20T16:56:28.960Z,8.83
2023-01-20T16:58:58.336Z,8.53
2023-01-20T17:01:27.199Z,8.83
2023-01-20T17:03:56.529Z,9.27
2023-01-20T17:06:25.536Z,9.53
2023-01-20T17:08:54.684Z,9.27
2023-01-20T17:11:25.678Z,9.13
2023-01-20T17:13:54.954Z,9.80
2023-01-20T17:16:23.895Z,9.73
2023-01-20T17:18:52.374Z,10.00
2023-01-20T17:21:22.162Z,9.43
2023-01-20T17:23:52.048Z,10.03
2023-01-20T17:26:20.825Z,10.47
2023-01-20T17:28:50.682Z,10.03
2023-01-20T17:31:19.122Z,10.77
2023-01-20T17:33:47.776Z,10.00
2023-01-20T17:36:17.548Z,10.00
2023-01-20T17:38:46.230Z,10.07
2023-01-20T17:41:15.311Z,10.47
2023-01-20T17:43:46.197Z,10.30
2023-01-20T17:46:17.515Z,11.27
2023-01-20T17:48:46.021Z,11.17
2023-01-20T17:51:15.686Z,11.83
2023-01-20T17:53:44.402Z,10.80
2023-01-20T17:56:13.949Z,10.27
2023-01-20T17:58:43.164Z,10.40
2023-01-20T18:01:16.831Z,10.33
2023-01-20T18:03:45.790Z,10.20
2023-01-20T18:06:15.023Z,10.47
2023-01-20T18:08:43.994Z,11.13
2023-01-20T18:11:15.005Z,10.80
2023-01-20T18:13:46.089Z,10.27
2023-01-20T18:16:16.529Z,11.50
2023-01-20T18:18:45.679Z,10.77
2023-01-20T18:21:15.000Z,10.60
2023-01-20T18:23:44.071Z,10.93
2023-01-20T18:26:13.801Z,11.23
2023-01-20T18:28:42.792Z,11.40
2023-01-20T18:31:12.335Z,11.23
2023-01-20T18:33:44.583Z,10.73
2023-01-20T18:36:14.896Z,10.90
2023-01-20T18:41:02.850Z,11.33
2023-01-20T18:43:31.410Z,10.73
2023-01-20T18:45:59.874Z,11.53
2023-01-20T18:48:28.328Z,11.93
2023-01-20T18:50:59.743Z,12.40
2023-01-20T18:53:28.351Z,12.07
2023-01-20T18:56:02.451Z,11.43
2023-01-20T18:58:31.083Z,11.67
2023-01-20T19:01:03.897Z,12.70
2023-01-20T19:03:32.375Z,12.97
2023-01-20T19:06:07.866Z,12.63
2023-01-20T19:08:36.572Z,17.37
2023-01-20T19:11:08.858Z,14.33
2023-01-20T19:13:37.495Z,12.73
2023-01-20T19:16:10.114Z,12.23
2023-01-20T19:18:38.876Z,12.87
2023-01-20T19:21:07.813Z,11.80
2023-01-20T19:23:36.327Z,12.43
2023-01-20T19:26:07.414Z,12.03
2023-01-20T19:28:35.884Z,12.07
2023-01-20T19:31:08.030Z,12.03
2023-01-20T19:33:37.110Z,13.67
2023-01-20T19:36:06.863Z,12.93
2023-01-20T19:38:35.539Z,15.33
2023-01-20T19:41:08.731Z,20.23
2023-01-20T19:43:37.702Z,18.43
2023-01-20T19:46:07.049Z,15.80
2023-01-20T19:48:35.740Z,16.33
2023-01-20T19:51:04.934Z,15.43
2023-01-20T19:53:33.858Z,16.33
2023-01-20T19:56:02.561Z,16.47
2023-01-20T19:58:32.373Z,15.70
2023-01-20T20:01:07.216Z,15.77
2023-01-20T20:03:35.712Z,15.07
2023-01-20T20:06:04.209Z,16.20
2023-01-20T20:08:32.785Z,16.47
2023-01-20T20:11:01.315Z,17.63
2023-01-20T20:13:29.822Z,16.80
2023-01-20T20:16:03.239Z,16.83
2023-01-20T20:18:32.234Z,16.77
2023-01-20T20:21:00.735Z,16.93
2023-01-20T20:23:29.911Z,16.50
2023-01-20T20:25:58.398Z,16.60
2023-01-20T20:28:27.376Z,16.40
2023-01-20T20:30:56.583Z,16.47
2023-01-20T20:33:26.743Z,16.13
2023-01-20T20:35:55.170Z,16.97
2023-01-20T20:38:23.566Z,17.47
2023-01-20T20:40:57.509Z,19.10
2023-01-20T20:43:26.392Z,17.90
2023-01-20T20:45:54.872Z,17.83
2023-01-20T20:48:23.274Z,17.83
2023-01-20T20:50:53.789Z,17.37
2023-01-20T20:53:22.616Z,17.23
2023-01-20T20:55:55.444Z,16.20
2023-01-20T20:58:23.881Z,18.37
2023-01-20T21:00:52.563Z,18.47
2023-01-20T21:03:21.031Z,17.60
2023-01-20T21:05:49.950Z,18.03
2023-01-20T21:08:20.062Z,17.07
2023-01-20T21:10:48.547Z,18.63
2023-01-20T21:13:16.989Z,19.03
2023-01-20T21:15:45.503Z,18.63
2023-01-20T21:18:13.972Z,18.93
2023-01-20T21:20:42.607Z,19.77
2023-01-20T21:23:11.096Z,19.73
2023-01-20T21:25:40.905Z,20.10
2023-01-20T21:28:09.858Z,19.60
2023-01-20T21:30:38.334Z,20.07
2023-01-20T21:33:06.849Z,20.73
2023-01-20T21:35:38.759Z,19.27
2023-01-20T21:38:07.265Z,20.37
2023-01-20T21:40:35.709Z,22.10
2023-01-20T21:43:25.257Z,21.70
2023-01-20T21:45:54.097Z,21.00
2023-01-20T21:48:40.473Z,19.73
2023-01-20T21:51:28.613Z,21.43
2023-01-20T21:53:57.398Z,21.57
2023-01-20T21:56:25.946Z,21.80
2023-01-20T21:58:55.746Z,21.60
2023-01-20T22:01:24.239Z,21.37
2023-01-20T22:03:52.674Z,22.13
2023-01-20T22:06:21.205Z,21.13
2023-01-20T22:08:49.619Z,21.70
2023-01-20T22:11:18.091Z,22.47
2023-01-20T22:13:46.574Z,23.00
2023-01-20T22:16:16.407Z,21.67
2023-01-20T22:18:47.000Z,21.97
2023-01-20T22:21:15.527Z,20.17
2023-01-20T22:23:44.812Z,21.87
2023-01-20T22:26:13.495Z,21.30
2023-01-20T22:28:42.119Z,21.70
2023-01-20T22:31:11.908Z,23.03
2023-01-20T22:33:42.278Z,22.33
2023-01-20T22:36:11.090Z,23.33
2023-01-20T22:38:39.498Z,22.50
2023-01-20T22:41:08.739Z,21.90
2023-01-20T22:43:39.974Z,22.40
2023-01-20T22:46:08.548Z,22.80
2023-01-20T22:48:37.038Z,22.93
2023-01-20T22:51:08.326Z,22.63
2023-01-20T22:53:37.175Z,23.53
2023-01-20T22:56:06.772Z,23.53
2023-01-20T22:58:35.564Z,23.57
2023-01-20T23:01:04.091Z,24.23
2023-01-20T23:03:32.758Z,23.53
2023-01-20T23:06:02.011Z,22.33
2023-01-20T23:08:32.674Z,23.60
2023-01-20T23:11:02.064Z,23.93
2023-01-20T23:13:30.755Z,24.30
2023-01-20T23:15:59.235Z,22.63
2023-01-20T23:18:29.587Z,23.93
2023-01-20T23:20:58.129Z,25.10
2023-01-20T23:23:27.454Z,24.27
2023-01-20T23:26:03.565Z,24.57
2023-01-20T23:28:32.022Z,24.07
2023-01-20T23:31:01.506Z,24.27
2023-01-20T23:33:30.016Z,24.43
2023-01-20T23:36:04.062Z,23.90
2023-01-20T23:38:32.575Z,22.97
2023-01-20T23:41:01.002Z,24.57
2023-01-20T23:43:30.833Z,24.07
2023-01-20T23:45:59.632Z,24.03
2023-01-20T23:48:28.543Z,24.10
2023-01-20T23:50:59.825Z,23.77
2023-01-20T23:53:28.975Z,23.87
2023-01-20T23:56:00.679Z,25.33
2023-01-20T23:58:29.103Z,24.33
